Townshend, Vermont
Current Conditions -  °F | °C
As of 2:54 AM on Thursday 18 Dec 2014 (Local Time) from KVSF Reporting Station
Overcast Overcast  
Wind Chill: 31°   Ceiling: 3200
Heat Index: 37°   Visibility: 10mi
Dew Point: 28°   Wind: 8mph
Humidity: 70%   Direction: 280°W
Pressure: 29.73"   Gusts: NA
Location:  43.05°N, 72.67°W
Report Text: KVSF 180754Z AUTO 28007KT 240V310 10SM BKN032 OVC055 03/M02 A2973 RMK AO2 SLP074 T00281022 TSNO
Loading
Personal Weather Stations






























Interactive Weather Map New forecast layout! Learn more

10-Day Weather Forecast

Advertisements
Track Severe Weather on mobile